N571SK -KRIC
Flight info
| Callsign | N571SK |
|---|---|
| Flight time | N/A |
| Altitude | VFR |
| Route | |
| Aircraft | S22T/L-DOV/C |
Departure
| Time | N/A |
|---|---|
| Airport | - |
Arrival
| Time | 2026-04-16 15:11 |
|---|---|
| Airport | Richmond International Airport (KRIC) |
| Time | Latitude | Longitude | Altitude | Speed | Heading |
|---|---|---|---|---|---|
| 2026-04-16 14:53 | 37.54240 | -77.29602 | 1493 ft | 97 kts | 253° |
| 2026-04-16 14:54 | 37.54050 | -77.30321 | 1347 ft | 84 kts | 246° |
| 2026-04-16 14:54 | 37.53759 | -77.30934 | 1195 ft | 82 kts | 233° |
| 2026-04-16 14:54 | 37.53366 | -77.31468 | 978 ft | 88 kts | 222° |
| 2026-04-16 14:54 | 37.52876 | -77.31931 | 716 ft | 86 kts | 212° |
| 2026-04-16 14:55 | 37.52329 | -77.32224 | 420 ft | 85 kts | 195° |
| 2026-04-16 14:55 | 37.51753 | -77.32403 | 246 ft | 86 kts | 195° |
| 2026-04-16 14:55 | 37.51388 | -77.32515 | 178 ft | 72 kts | 193° |
| 2026-04-16 14:55 | 37.50800 | -77.32692 | 205 ft | 79 kts | 192° |
| 2026-04-16 14:56 | 37.50244 | -77.32798 | 548 ft | 83 kts | 180° |
| 2026-04-16 14:56 | 37.49888 | -77.32600 | 752 ft | 97 kts | 137° |
| 2026-04-16 14:56 | 37.49685 | -77.31748 | 1120 ft | 110 kts | 100° |
| 2026-04-16 14:56 | 37.49697 | -77.30713 | 1377 ft | 120 kts | 66° |
| 2026-04-16 14:57 | 37.50293 | -77.29975 | 1547 ft | 122 kts | 17° |
| 2026-04-16 14:57 | 37.51122 | -77.29639 | 1582 ft | 126 kts | 7° |
| 2026-04-16 14:57 | 37.51987 | -77.29384 | 1672 ft | 129 kts | 9° |
| 2026-04-16 14:57 | 37.52830 | -77.29061 | 1641 ft | 123 kts | 7° |
| 2026-04-16 14:58 | 37.53648 | -77.28807 | 1581 ft | 120 kts | 9° |
| 2026-04-16 14:58 | 37.55205 | -77.28498 | 1739 ft | 95 kts | 316° |
| 2026-04-16 14:58 | 37.55468 | -77.29210 | 1738 ft | 95 kts | 277° |
| 2026-04-16 14:59 | 37.55556 | -77.30022 | 1692 ft | 95 kts | 270° |
| 2026-04-16 14:59 | 37.55436 | -77.30833 | 1614 ft | 94 kts | 239° |
| 2026-04-16 14:59 | 37.54856 | -77.31291 | 1465 ft | 105 kts | 209° |
| 2026-04-16 14:59 | 37.54197 | -77.31555 | 1245 ft | 95 kts | 205° |
| 2026-04-16 15:00 | 37.53591 | -77.31825 | 1011 ft | 88 kts | 197° |
| 2026-04-16 15:00 | 37.53026 | -77.32004 | 700 ft | 80 kts | 196° |
| 2026-04-16 15:00 | 37.52460 | -77.32195 | 433 ft | 84 kts | 196° |
| 2026-04-16 15:00 | 37.51912 | -77.32355 | 277 ft | 81 kts | 194° |
| 2026-04-16 15:01 | 37.51387 | -77.32515 | 170 ft | 68 kts | 193° |
| 2026-04-16 15:01 | 37.50892 | -77.32663 | 218 ft | 86 kts | 194° |
| 2026-04-16 15:01 | 37.50299 | -77.32807 | 587 ft | 86 kts | 180° |
| 2026-04-16 15:01 | 37.49807 | -77.32360 | 894 ft | 106 kts | 114° |
| 2026-04-16 15:02 | 37.49714 | -77.31436 | 1080 ft | 115 kts | 97° |
| 2026-04-16 15:02 | 37.49850 | -77.30404 | 1244 ft | 127 kts | 57° |
| 2026-04-16 15:02 | 37.50573 | -77.29804 | 1433 ft | 125 kts | 12° |
| 2026-04-16 15:02 | 37.51443 | -77.29527 | 1436 ft | 128 kts | 2° |
| 2026-04-16 15:03 | 37.52319 | -77.29364 | 1563 ft | 127 kts | 3° |
| 2026-04-16 15:03 | 37.53143 | -77.29068 | 1570 ft | 115 kts | 13° |
| 2026-04-16 15:03 | 37.53848 | -77.29028 | 1396 ft | 97 kts | 320° |
| 2026-04-16 15:03 | 37.54185 | -77.29722 | 1167 ft | 93 kts | 282° |
| 2026-04-16 15:04 | 37.54328 | -77.30509 | 1004 ft | 87 kts | 272° |
| 2026-04-16 15:04 | 37.54264 | -77.31228 | 921 ft | 81 kts | 245° |
| 2026-04-16 15:04 | 37.53844 | -77.31683 | 787 ft | 83 kts | 214° |
| 2026-04-16 15:04 | 37.53292 | -77.31897 | 656 ft | 83 kts | 198° |
| 2026-04-16 15:05 | 37.52712 | -77.32098 | 480 ft | 89 kts | 198° |
| 2026-04-16 15:05 | 37.52148 | -77.32275 | 350 ft | 82 kts | 200° |
| 2026-04-16 15:05 | 37.51605 | -77.32453 | 198 ft | 79 kts | 195° |
| 2026-04-16 15:05 | 37.51136 | -77.32597 | 169 ft | 76 kts | 193° |
| 2026-04-16 15:06 | 37.50573 | -77.32760 | 404 ft | 89 kts | 193° |
| 2026-04-16 15:06 | 37.50016 | -77.32466 | 750 ft | 101 kts | 131° |
| 2026-04-16 15:06 | 37.49738 | -77.31554 | 1059 ft | 118 kts | 111° |
| 2026-04-16 15:06 | 37.49796 | -77.30472 | 1415 ft | 135 kts | 61° |
| 2026-04-16 15:07 | 37.50323 | -77.29489 | 1599 ft | 138 kts | 40° |
| 2026-04-16 15:07 | 37.51193 | -77.29077 | 1586 ft | 133 kts | 355° |
| 2026-04-16 15:07 | 37.52108 | -77.28896 | 1732 ft | 133 kts | 11° |
| 2026-04-16 15:07 | 37.52942 | -77.28425 | 1823 ft | 130 kts | 33° |
| 2026-04-16 15:08 | 37.53608 | -77.27675 | 1784 ft | 130 kts | 36° |
| 2026-04-16 15:08 | 37.54342 | -77.27148 | 1763 ft | 119 kts | 338° |
| 2026-04-16 15:08 | 37.55033 | -77.27657 | 1758 ft | 114 kts | 310° |
| 2026-04-16 15:08 | 37.55547 | -77.28398 | 1694 ft | 112 kts | 297° |
| 2026-04-16 15:09 | 37.55911 | -77.29210 | 1693 ft | 102 kts | 277° |
| 2026-04-16 15:09 | 37.55703 | -77.30029 | 1666 ft | 105 kts | 237° |
| 2026-04-16 15:09 | 37.55181 | -77.30693 | 1584 ft | 101 kts | 220° |
| 2026-04-16 15:09 | 37.54664 | -77.31243 | 1379 ft | 97 kts | 224° |
| 2026-04-16 15:10 | 37.54067 | -77.31654 | 1065 ft | 92 kts | 206° |
| 2026-04-16 15:10 | 37.53492 | -77.31848 | 846 ft | 83 kts | 198° |
| 2026-04-16 15:10 | 37.52927 | -77.32022 | 581 ft | 87 kts | 199° |
| 2026-04-16 15:10 | 37.52355 | -77.32224 | 365 ft | 82 kts | 193° |
| 2026-04-16 15:11 | 37.51819 | -77.32385 | 235 ft | 78 kts | 195° |
| 2026-04-16 15:11 | 37.51318 | -77.32536 | 170 ft | 64 kts | 197° |
| 2026-04-16 15:11 | 37.51019 | -77.32628 | 169 ft | 20 kts | 193° |
| 2026-04-16 15:11 | 37.50974 | -77.32728 | 168 ft | 10 kts | 258° |
| 2026-04-16 15:12 | 37.50969 | -77.32758 | 168 ft | 0 kts | 261° |
| 2026-04-16 15:12 | 37.50968 | -77.32763 | 168 ft | 1 kts | 256° |
| 2026-04-16 15:13 | 37.50967 | -77.32768 | 168 ft | 0 kts | 252° |
| 2026-04-16 15:13 | 37.50966 | -77.32776 | 168 ft | 1 kts | 257° |
| 2026-04-16 15:13 | 37.50970 | -77.32789 | 168 ft | 5 kts | 338° |
| 2026-04-16 15:13 | 37.51076 | -77.32753 | 168 ft | 21 kts | 11° |
| 2026-04-16 15:14 | 37.51195 | -77.32732 | 168 ft | 17 kts | 324° |
| 2026-04-16 15:14 | 37.51209 | -77.32855 | 168 ft | 13 kts | 258° |
| 2026-04-16 15:14 | 37.51237 | -77.32917 | 168 ft | 11 kts | 14° |
| 2026-04-16 15:14 | 37.51345 | -77.32888 | 168 ft | 20 kts | 12° |
| 2026-04-16 15:15 | 37.51498 | -77.32842 | 168 ft | 21 kts | 14° |
| 2026-04-16 15:15 | 37.51597 | -77.32863 | 168 ft | 13 kts | 338° |
| 2026-04-16 15:15 | 37.51673 | -77.32877 | 168 ft | 8 kts | 335° |
| 2026-04-16 15:15 | 37.51714 | -77.32926 | 168 ft | 10 kts | 283° |
| 2026-04-16 15:16 | 37.51717 | -77.33021 | 168 ft | 9 kts | 267° |
| 2026-04-16 15:16 | 37.51688 | -77.33050 | 168 ft | 8 kts | 134° |
| 2026-04-16 15:16 | 37.51680 | -77.33026 | 168 ft | 0 kts | 87° |